createdAt,value
2018-11-25T00:00:30.840Z,12.07
2018-11-25T00:03:02.640Z,12.90
2018-11-25T00:05:35.540Z,10.10
2018-11-25T00:08:07.099Z,12.10
2018-11-25T00:10:38.623Z,9.70
2018-11-25T00:13:10.222Z,10.78
2018-11-25T00:15:42.120Z,12.95
2018-11-25T00:18:13.980Z,9.85
2018-11-25T00:20:46.283Z,10.45
2018-11-25T00:23:18.761Z,12.03
2018-11-25T00:25:50.402Z,14.98
2018-11-25T00:28:22.645Z,11.08
2018-11-25T00:30:54.320Z,11.50
2018-11-25T00:33:26.079Z,15.80
2018-11-25T00:35:56.720Z,10.03
2018-11-25T00:38:28.299Z,10.18
2018-11-25T00:40:59.880Z,10.93
2018-11-25T00:43:32.981Z,11.73
2018-11-25T00:46:05.462Z,11.43
2018-11-25T00:48:37.360Z,13.48
2018-11-25T00:51:09.300Z,13.83
2018-11-25T00:53:40.602Z,11.25
2018-11-25T00:56:12.580Z,10.78
2018-11-25T00:58:45.280Z,12.25
2018-11-25T01:01:17.040Z,16.30
2018-11-25T01:03:49.121Z,12.73
2018-11-25T01:06:20.900Z,13.85
2018-11-25T01:08:51.980Z,11.53
2018-11-25T01:11:23.320Z,13.30
2018-11-25T01:13:55.221Z,20.45
2018-11-25T01:16:26.283Z,11.50
2018-11-25T01:18:58.606Z,11.78
2018-11-25T01:21:30.580Z,11.00
2018-11-25T01:24:02.020Z,11.70
2018-11-25T01:26:33.740Z,12.07
2018-11-25T01:29:05.643Z,10.95
2018-11-25T01:31:37.563Z,10.18
2018-11-25T01:34:09.962Z,11.83
2018-11-25T01:36:41.482Z,12.70
2018-11-25T01:39:13.420Z,9.18
2018-11-25T01:41:45.380Z,9.90
2018-11-25T01:44:17.000Z,11.25
2018-11-25T01:46:48.740Z,10.88
2018-11-25T01:49:20.866Z,9.00
2018-11-25T01:51:52.899Z,7.78
2018-11-25T01:54:25.781Z,10.93
2018-11-25T01:56:57.622Z,12.03
2018-11-25T01:59:30.581Z,9.55
2018-11-25T02:02:01.742Z,10.10
2018-11-25T02:04:34.061Z,10.38
2018-11-25T02:07:05.444Z,22.00
2018-11-25T02:09:37.680Z,9.70
2018-11-25T02:12:09.120Z,9.35
2018-11-25T02:14:41.462Z,11.63
2018-11-25T02:17:12.920Z,9.68
2018-11-25T02:19:45.100Z,11.33
2018-11-25T02:22:17.122Z,11.73
2018-11-25T02:24:49.300Z,9.25
2018-11-25T02:27:22.882Z,10.43
2018-11-25T02:29:54.882Z,9.30
2018-11-25T02:32:28.462Z,10.90
2018-11-25T02:35:00.040Z,9.33
2018-11-25T02:37:32.362Z,9.43
2018-11-25T02:40:04.102Z,10.00
2018-11-25T02:42:35.382Z,9.35
2018-11-25T02:45:07.860Z,9.43
2018-11-25T02:47:40.180Z,9.15
2018-11-25T02:50:17.642Z,12.53
2018-11-25T02:52:49.920Z,8.73
2018-11-25T02:55:23.342Z,8.88
2018-11-25T02:57:55.360Z,9.95
2018-11-25T03:00:26.804Z,12.98
2018-11-25T03:02:58.700Z,9.33
2018-11-25T03:05:30.962Z,10.38
2018-11-25T03:08:02.700Z,8.73
2018-11-25T03:10:34.823Z,10.63
2018-11-25T03:13:06.800Z,8.85
2018-11-25T03:15:39.320Z,9.55
2018-11-25T03:18:11.680Z,9.48
2018-11-25T03:20:42.900Z,9.65
2018-11-25T03:23:14.908Z,9.25
2018-11-25T03:25:47.160Z,8.83
2018-11-25T03:28:18.862Z,9.20
2018-11-25T03:30:51.200Z,9.50
2018-11-25T03:33:23.240Z,9.33
2018-11-25T03:35:55.381Z,8.25
2018-11-25T03:38:27.380Z,9.18
2018-11-25T03:40:59.040Z,10.98
2018-11-25T03:43:30.921Z,7.35
2018-11-25T03:46:02.060Z,8.25
2018-11-25T03:48:34.020Z,8.40
2018-11-25T03:51:05.440Z,7.65
2018-11-25T03:53:37.363Z,8.68
2018-11-25T03:56:08.561Z,7.50
2018-11-25T03:58:40.709Z,9.65
2018-11-25T04:01:11.721Z,7.37
2018-11-25T04:03:43.780Z,9.68
2018-11-25T04:06:16.101Z,9.68
2018-11-25T04:08:48.040Z,7.12
2018-11-25T04:11:19.621Z,10.28
2018-11-25T04:13:51.840Z,9.63
2018-11-25T04:16:22.940Z,7.10
2018-11-25T04:18:54.180Z,7.15
2018-11-25T04:22:50.232Z,7.45
2018-11-25T04:25:21.980Z,7.97
2018-11-25T04:27:54.101Z,9.43
2018-11-25T04:30:26.202Z,9.03
2018-11-25T04:32:58.941Z,7.67
2018-11-25T04:35:30.900Z,7.90
2018-11-25T04:38:03.861Z,7.30
2018-11-25T04:40:35.960Z,7.72
2018-11-25T04:43:08.520Z,7.65
2018-11-25T04:45:40.400Z,7.22
2018-11-25T04:48:11.921Z,7.47
2018-11-25T04:50:43.780Z,7.50
2018-11-25T04:53:15.061Z,24.25
2018-11-25T04:55:47.400Z,10.05
2018-11-25T04:58:20.761Z,6.17
2018-11-25T05:00:52.220Z,5.05
2018-11-25T05:03:23.541Z,6.70
2018-11-25T05:05:55.420Z,5.22
2018-11-25T05:08:26.682Z,5.33
2018-11-25T05:10:58.840Z,5.72
2018-11-25T05:13:31.660Z,6.10
2018-11-25T05:16:03.320Z,6.10
2018-11-25T05:18:35.600Z,5.40
2018-11-25T05:21:07.988Z,5.97
2018-11-25T05:23:39.380Z,6.35
2018-11-25T05:26:11.400Z,5.67
2018-11-25T05:28:43.380Z,6.15
2018-11-25T05:31:15.460Z,7.80
2018-11-25T05:33:47.400Z,7.97
2018-11-25T05:36:18.660Z,13.68
2018-11-25T05:38:50.261Z,8.90
2018-11-25T05:41:22.021Z,10.65
2018-11-25T05:43:53.903Z,14.28
2018-11-25T05:46:26.021Z,40.55
2018-11-25T05:48:57.800Z,39.40
2018-11-25T05:51:29.781Z,46.48
2018-11-25T05:54:01.840Z,37.20
2018-11-25T05:56:33.285Z,31.07
2018-11-25T05:59:04.562Z,44.23
2018-11-25T06:01:36.640Z,31.15
2018-11-25T06:04:09.040Z,28.70
2018-11-25T06:06:41.060Z,27.48
2018-11-25T06:09:13.200Z,27.10
2018-11-25T06:11:45.520Z,22.05
2018-11-25T06:14:18.486Z,18.48
2018-11-25T06:16:50.140Z,17.52
2018-11-25T06:19:22.779Z,15.83
2018-11-25T06:21:53.883Z,14.15
2018-11-25T06:24:26.120Z,20.77
2018-11-25T06:26:58.844Z,10.68
2018-11-25T06:29:30.560Z,9.70
2018-11-25T06:32:03.021Z,11.50
2018-11-25T06:34:35.020Z,12.25
2018-11-25T06:37:06.661Z,12.30
2018-11-25T06:39:38.400Z,13.20
2018-11-25T06:42:10.240Z,13.50
2018-11-25T06:44:42.288Z,18.00
2018-11-25T06:47:13.840Z,24.63
2018-11-25T06:49:45.721Z,25.08
2018-11-25T06:52:18.061Z,24.90
2018-11-25T06:54:50.380Z,23.05
2018-11-25T06:57:22.340Z,22.00
2018-11-25T06:59:54.885Z,19.42
2018-11-25T07:02:26.462Z,23.22
2018-11-25T07:04:58.880Z,47.70
2018-11-25T07:07:30.700Z,31.27
2018-11-25T07:10:03.180Z,36.65
2018-11-25T07:12:35.242Z,35.63
2018-11-25T07:15:07.982Z,43.05
2018-11-25T07:17:40.301Z,35.08
2018-11-25T07:20:14.107Z,40.28
2018-11-25T07:22:46.182Z,34.63
2018-11-25T07:25:21.342Z,25.40
2018-11-25T07:27:54.299Z,37.65
2018-11-25T07:30:28.600Z,21.87
2018-11-25T07:33:00.480Z,54.38
2018-11-25T07:35:32.620Z,45.35
2018-11-25T07:38:04.923Z,32.33
2018-11-25T07:40:36.741Z,23.47
2018-11-25T07:43:09.620Z,24.98
2018-11-25T07:45:41.864Z,28.07
2018-11-25T07:48:13.740Z,31.12
2018-11-25T07:50:46.040Z,22.85
2018-11-25T07:53:18.120Z,27.73
2018-11-25T07:55:50.420Z,34.85
2018-11-25T07:58:22.440Z,13.72
2018-11-25T08:00:55.448Z,15.00
2018-11-25T08:03:27.220Z,18.35
2018-11-25T08:05:59.944Z,15.20
2018-11-25T08:08:31.963Z,16.95
2018-11-25T08:11:04.160Z,16.05
2018-11-25T08:13:36.341Z,14.50
2018-11-25T08:16:08.144Z,21.77
2018-11-25T08:18:40.140Z,14.15
2018-11-25T08:21:11.503Z,16.27
2018-11-25T08:23:42.680Z,17.52
2018-11-25T08:26:14.760Z,16.80
2018-11-25T08:28:46.781Z,37.13
2018-11-25T08:31:18.460Z,18.67
2018-11-25T08:33:50.842Z,20.40
2018-11-25T08:36:22.542Z,21.52
2018-11-25T08:38:55.122Z,15.28
2018-11-25T08:41:28.000Z,17.32
2018-11-25T08:43:59.821Z,12.18
2018-11-25T08:46:32.622Z,13.88
2018-11-25T08:49:04.000Z,11.85
2018-11-25T08:51:36.900Z,12.15
2018-11-25T08:54:06.881Z,13.50
2018-11-25T08:56:36.940Z,14.33
2018-11-25T08:59:06.981Z,16.52
2018-11-25T09:01:39.540Z,12.70
2018-11-25T09:04:09.421Z,14.93
2018-11-25T09:06:39.501Z,74.37
2018-11-25T09:09:12.040Z,20.95
2018-11-25T09:11:43.241Z,13.38
2018-11-25T09:14:15.921Z,16.73
2018-11-25T09:16:46.862Z,20.02
2018-11-25T09:19:18.280Z,13.70
2018-11-25T09:21:50.680Z,14.03
2018-11-25T09:24:22.441Z,13.10
2018-11-25T09:26:54.647Z,16.97
2018-11-25T09:29:26.821Z,13.93
2018-11-25T09:31:58.840Z,13.70
2018-11-25T09:34:30.481Z,16.12
2018-11-25T09:37:02.995Z,13.08
2018-11-25T09:39:35.900Z,14.70
2018-11-25T09:42:08.142Z,13.75
2018-11-25T09:44:41.781Z,12.78
2018-11-25T09:47:14.700Z,11.75
2018-11-25T09:49:47.220Z,15.38
2018-11-25T09:52:20.180Z,14.10
2018-11-25T09:54:52.440Z,14.83
2018-11-25T09:57:24.622Z,15.30
2018-11-25T09:59:56.821Z,13.80
2018-11-25T10:02:29.360Z,17.00
2018-11-25T10:05:02.862Z,11.57
2018-11-25T10:07:34.561Z,12.58
2018-11-25T10:10:08.180Z,14.03
2018-11-25T10:12:40.120Z,13.08
2018-11-25T10:15:14.386Z,13.98
2018-11-25T10:17:45.846Z,19.62
2018-11-25T10:20:20.981Z,14.93
2018-11-25T10:22:52.405Z,17.57
2018-11-25T10:25:25.028Z,13.25
2018-11-25T10:27:56.961Z,12.63
2018-11-25T10:30:31.981Z,15.80
2018-11-25T10:33:04.562Z,12.23
2018-11-25T10:35:36.985Z,17.23
2018-11-25T10:38:09.902Z,11.68
2018-11-25T10:40:42.242Z,11.83
2018-11-25T10:43:13.961Z,12.47
2018-11-25T10:45:46.920Z,14.70
2018-11-25T10:48:18.580Z,14.20
2018-11-25T10:50:51.388Z,11.60
2018-11-25T10:53:24.160Z,13.32
2018-11-25T10:55:56.302Z,13.13
2018-11-25T10:58:28.262Z,12.68
2018-11-25T11:01:06.081Z,13.13
2018-11-25T11:03:42.620Z,14.03
2018-11-25T11:06:20.840Z,13.18
2018-11-25T11:08:52.419Z,21.10
2018-11-25T11:11:26.541Z,15.38
2018-11-25T11:13:58.721Z,18.00
2018-11-25T11:16:31.941Z,12.37
2018-11-25T11:19:03.180Z,14.13
2018-11-25T11:21:36.601Z,14.10
2018-11-25T11:24:09.662Z,12.07
2018-11-25T11:26:41.720Z,14.13
2018-11-25T11:29:13.620Z,14.23
2018-11-25T11:31:45.221Z,15.13
2018-11-25T11:34:17.200Z,13.95
2018-11-25T11:36:48.967Z,13.28
2018-11-25T11:39:20.621Z,15.63
2018-11-25T11:41:53.341Z,14.83
2018-11-25T11:44:24.861Z,14.75
2018-11-25T11:46:56.980Z,15.40
2018-11-25T11:49:28.501Z,17.75
2018-11-25T11:52:01.525Z,17.77
2018-11-25T11:54:33.680Z,15.93
2018-11-25T11:57:06.061Z,12.20
2018-11-25T11:59:37.060Z,18.40
2018-11-25T12:02:09.960Z,13.53
2018-11-25T12:04:42.284Z,15.30
2018-11-25T12:07:14.581Z,15.05
2018-11-25T12:09:46.921Z,15.55
2018-11-25T12:12:19.141Z,16.95
2018-11-25T12:14:50.395Z,15.45
2018-11-25T12:17:21.600Z,17.48
2018-11-25T12:19:53.424Z,16.42
2018-11-25T12:22:25.640Z,16.93
2018-11-25T12:24:57.100Z,16.15
2018-11-25T12:27:29.240Z,18.00
2018-11-25T12:30:02.842Z,18.05
2018-11-25T12:32:36.041Z,20.75
2018-11-25T12:35:07.602Z,22.95
2018-11-25T12:37:39.180Z,17.20
2018-11-25T12:40:13.320Z,18.37
2018-11-25T12:42:47.077Z,14.87
2018-11-25T12:45:19.620Z,16.75
2018-11-25T12:47:52.781Z,17.90
2018-11-25T12:50:27.641Z,17.10
2018-11-25T12:53:01.048Z,17.75
2018-11-25T12:55:33.303Z,15.45
2018-11-25T12:58:05.800Z,16.37
2018-11-25T13:00:39.280Z,26.87
2018-11-25T13:03:13.100Z,16.23
2018-11-25T13:05:46.351Z,13.90
2018-11-25T13:08:17.920Z,14.68
2018-11-25T13:10:51.242Z,17.27
2018-11-25T13:13:22.881Z,14.85
2018-11-25T13:15:55.200Z,16.87
2018-11-25T13:18:27.168Z,15.13
2018-11-25T13:20:59.060Z,17.85
2018-11-25T13:23:31.826Z,15.83
2018-11-25T13:26:02.100Z,15.35
2018-11-25T13:28:34.240Z,17.05
2018-11-25T13:31:06.983Z,19.42
2018-11-25T13:33:38.921Z,22.70
2018-11-25T13:36:13.280Z,15.32
2018-11-25T13:38:44.520Z,15.13
2018-11-25T13:41:16.880Z,14.20
2018-11-25T13:43:49.163Z,19.82
2018-11-25T13:46:21.421Z,13.65
2018-11-25T13:48:54.282Z,16.77
2018-11-25T13:51:27.820Z,15.08
2018-11-25T13:54:02.700Z,15.80
2018-11-25T13:56:35.580Z,16.85
2018-11-25T13:59:07.341Z,18.23
2018-11-25T14:01:40.081Z,16.12
2018-11-25T14:04:12.520Z,15.43
2018-11-25T14:06:44.680Z,19.27
2018-11-25T14:09:17.820Z,16.95
2018-11-25T14:11:50.821Z,18.37
2018-11-25T14:14:22.661Z,17.98
2018-11-25T14:16:55.261Z,14.33
2018-11-25T14:19:27.761Z,16.48
2018-11-25T14:21:59.500Z,14.18
2018-11-25T14:24:31.401Z,16.07
2018-11-25T14:27:04.220Z,17.37
2018-11-25T14:29:36.341Z,16.23
2018-11-25T14:32:10.100Z,17.10
2018-11-25T14:34:42.281Z,14.68
2018-11-25T14:37:15.141Z,15.93
2018-11-25T14:39:46.902Z,15.85
2018-11-25T14:42:19.001Z,14.43
2018-11-25T14:44:51.021Z,15.98
2018-11-25T14:47:23.982Z,15.80
2018-11-25T14:49:56.120Z,18.85
2018-11-25T14:52:28.942Z,15.40
2018-11-25T14:55:00.522Z,17.57
2018-11-25T14:57:32.622Z,15.15
2018-11-25T15:00:05.541Z,13.85
2018-11-25T15:02:37.836Z,17.17
2018-11-25T15:05:14.640Z,21.65
2018-11-25T15:07:46.380Z,16.57
2018-11-25T15:10:18.805Z,19.85
2018-11-25T15:12:50.701Z,17.70
2018-11-25T15:15:23.024Z,18.32
2018-11-25T15:17:55.761Z,17.42
2018-11-25T15:20:26.835Z,17.90
2018-11-25T15:23:01.581Z,18.00
2018-11-25T15:25:35.700Z,18.57
2018-11-25T15:28:10.520Z,17.80
2018-11-25T15:30:42.500Z,20.10
2018-11-25T15:33:15.300Z,17.73
2018-11-25T15:35:47.407Z,17.67
2018-11-25T15:38:18.788Z,17.75
2018-11-25T15:40:51.583Z,21.17
2018-11-25T15:43:23.841Z,18.42
2018-11-25T15:45:56.000Z,28.62
2018-11-25T15:48:29.901Z,18.00
2018-11-25T15:51:02.100Z,19.75
2018-11-25T15:53:34.094Z,20.17
2018-11-25T15:56:08.029Z,18.20
2018-11-25T15:58:40.741Z,16.00
2018-11-25T16:01:13.220Z,16.80
2018-11-25T16:03:45.110Z,16.32
2018-11-25T16:06:27.501Z,15.75
2018-11-25T16:08:59.410Z,17.00
2018-11-25T16:11:31.264Z,18.77
2018-11-25T16:14:04.303Z,20.08
2018-11-25T16:16:36.042Z,15.53
2018-11-25T16:19:07.983Z,19.35
2018-11-25T16:21:40.005Z,16.97
2018-11-25T16:24:11.981Z,19.90
2018-11-25T16:26:44.923Z,22.00
2018-11-25T16:29:20.780Z,22.67
2018-11-25T16:31:52.421Z,16.52
2018-11-25T16:34:25.768Z,15.72
2018-11-25T16:36:57.083Z,17.25
2018-11-25T16:39:28.975Z,17.77
2018-11-25T16:42:01.041Z,16.12
2018-11-25T16:44:33.122Z,18.37
2018-11-25T16:47:05.061Z,18.23
2018-11-25T16:49:38.521Z,16.87
2018-11-25T16:52:10.382Z,13.65
2018-11-25T16:54:42.163Z,14.07
2018-11-25T16:57:13.680Z,14.38
2018-11-25T16:59:46.821Z,14.40
2018-11-25T17:02:18.242Z,16.15
2018-11-25T17:04:50.460Z,12.55
2018-11-25T17:07:22.161Z,12.45
2018-11-25T17:09:56.000Z,11.97
2018-11-25T17:12:27.880Z,15.18
2018-11-25T17:14:59.941Z,13.72
2018-11-25T17:17:32.162Z,18.05
2018-11-25T17:20:04.340Z,15.05
2018-11-25T17:22:36.640Z,14.35
2018-11-25T17:25:11.854Z,14.93
2018-11-25T17:27:42.440Z,13.35
2018-11-25T17:30:15.841Z,16.12
2018-11-25T17:32:47.703Z,14.43
2018-11-25T17:35:23.080Z,15.93
2018-11-25T17:37:55.100Z,15.13
2018-11-25T17:40:28.390Z,16.62
2018-11-25T17:43:00.780Z,19.85
2018-11-25T17:45:33.248Z,15.95
2018-11-25T17:48:05.101Z,14.73
2018-11-25T17:50:38.162Z,16.75
2018-11-25T17:53:10.321Z,24.85
2018-11-25T17:55:42.862Z,21.35
2018-11-25T17:58:15.400Z,14.70
2018-11-25T18:00:52.962Z,16.57
2018-11-25T18:03:27.181Z,15.63
2018-11-25T18:05:59.701Z,14.58
2018-11-25T18:08:31.502Z,16.00
2018-11-25T18:11:03.540Z,15.98
2018-11-25T18:13:36.840Z,19.23
2018-11-25T18:16:09.960Z,14.95
2018-11-25T18:18:48.880Z,17.87
2018-11-25T18:21:21.540Z,18.52
2018-11-25T18:23:53.260Z,14.75
2018-11-25T18:26:25.020Z,17.10
2018-11-25T18:28:58.101Z,15.70
2018-11-25T18:31:30.381Z,17.20
2018-11-25T18:34:02.621Z,16.45
2018-11-25T18:36:34.262Z,15.98
2018-11-25T18:39:06.501Z,15.35
2018-11-25T18:41:38.260Z,14.35
2018-11-25T18:44:10.640Z,14.15
2018-11-25T18:46:47.597Z,14.50
2018-11-25T18:49:15.660Z,16.20
2018-11-25T18:51:48.081Z,15.55
2018-11-25T18:54:19.502Z,22.05
2018-11-25T18:56:50.561Z,16.25
2018-11-25T18:59:23.040Z,18.37
2018-11-25T19:02:01.782Z,17.50
2018-11-25T19:04:34.582Z,17.87
2018-11-25T19:07:06.900Z,19.10
2018-11-25T19:09:38.647Z,14.80
2018-11-25T19:12:11.343Z,14.47
2018-11-25T19:14:44.460Z,17.12
2018-11-25T19:17:14.740Z,15.45
2018-11-25T19:19:47.841Z,19.27
2018-11-25T19:22:19.522Z,15.23
2018-11-25T19:24:52.480Z,13.62
2018-11-25T19:27:23.960Z,14.95
2018-11-25T19:29:56.521Z,14.70
2018-11-25T19:32:29.141Z,18.42
2018-11-25T19:35:01.521Z,16.12
2018-11-25T19:37:33.041Z,14.13
2018-11-25T19:40:05.161Z,16.12
2018-11-25T19:42:36.743Z,17.80
2018-11-25T19:45:11.041Z,15.25
2018-11-25T19:47:43.301Z,15.75
2018-11-25T19:50:19.044Z,16.10
2018-11-25T19:52:50.560Z,17.30
2018-11-25T19:55:23.580Z,16.35
2018-11-25T19:57:55.464Z,12.65
2018-11-25T20:00:29.141Z,17.02
2018-11-25T20:03:01.678Z,13.62
2018-11-25T20:05:34.480Z,12.63
2018-11-25T20:08:06.281Z,15.85
2018-11-25T20:10:38.323Z,13.00
2018-11-25T20:13:12.082Z,12.88
2018-11-25T20:15:44.966Z,13.28
2018-11-25T20:18:17.020Z,13.60
2018-11-25T20:20:52.880Z,11.88
2018-11-25T20:23:24.541Z,15.40
2018-11-25T20:25:56.620Z,15.32
2018-11-25T20:28:29.320Z,14.38
2018-11-25T20:31:01.025Z,15.30
2018-11-25T20:33:37.702Z,12.90
2018-11-25T20:36:10.761Z,13.72
2018-11-25T20:38:46.621Z,13.32
2018-11-25T20:41:18.147Z,13.58
2018-11-25T20:43:50.644Z,16.60
2018-11-25T20:46:26.540Z,15.08
2018-11-25T20:48:59.240Z,13.95
2018-11-25T20:51:35.681Z,15.98
2018-11-25T20:54:07.820Z,12.85
2018-11-25T20:56:40.582Z,12.88
2018-11-25T20:59:12.400Z,16.27
2018-11-25T21:01:44.160Z,15.35
2018-11-25T21:04:16.302Z,16.60
2018-11-25T21:06:49.622Z,12.80
2018-11-25T21:09:21.382Z,13.70
2018-11-25T21:11:53.703Z,13.85
2018-11-25T21:14:26.201Z,13.93
2018-11-25T21:16:59.180Z,15.75
2018-11-25T21:19:31.260Z,15.48
2018-11-25T21:22:03.021Z,14.25
2018-11-25T21:24:34.881Z,16.17
2018-11-25T21:27:07.342Z,15.03
2018-11-25T21:29:40.061Z,15.18
2018-11-25T21:32:12.621Z,17.37
2018-11-25T21:34:44.301Z,23.45
2018-11-25T21:37:15.641Z,15.63
2018-11-25T21:39:47.540Z,15.93
2018-11-25T21:42:19.243Z,14.98
2018-11-25T21:44:50.700Z,13.93
2018-11-25T21:47:22.360Z,14.40
2018-11-25T21:49:54.363Z,15.78
2018-11-25T21:52:26.740Z,15.40
2018-11-25T21:54:57.961Z,18.05
2018-11-25T21:57:30.940Z,14.75
2018-11-25T22:00:02.681Z,14.50
2018-11-25T22:02:34.580Z,16.52
2018-11-25T22:05:05.700Z,15.28
2018-11-25T22:07:38.680Z,15.58
2018-11-25T22:10:12.626Z,14.47
2018-11-25T22:12:44.880Z,14.87
2018-11-25T22:15:18.960Z,16.32
2018-11-25T22:17:51.820Z,15.13
2018-11-25T22:20:23.300Z,15.80
2018-11-25T22:22:55.681Z,15.00
2018-11-25T22:25:27.700Z,16.35
2018-11-25T22:27:59.080Z,21.35
2018-11-25T22:30:31.400Z,16.70
2018-11-25T22:33:03.500Z,15.30
2018-11-25T22:35:36.309Z,17.98
2018-11-25T22:38:10.322Z,14.68
2018-11-25T22:40:42.380Z,16.30
2018-11-25T22:43:14.023Z,14.75
2018-11-25T22:45:46.821Z,15.08
2018-11-25T22:48:18.380Z,17.57
2018-11-25T22:50:49.361Z,17.70
2018-11-25T22:53:21.022Z,13.72
2018-11-25T22:55:53.221Z,16.30
2018-11-25T22:58:25.050Z,16.87
2018-11-25T23:00:57.342Z,14.55
2018-11-25T23:03:29.220Z,15.80
2018-11-25T23:06:10.560Z,15.20
2018-11-25T23:08:43.080Z,15.48
2018-11-25T23:11:15.201Z,16.00
2018-11-25T23:13:47.065Z,18.55
2018-11-25T23:16:18.960Z,14.30
2018-11-25T23:18:50.320Z,17.27
2018-11-25T23:21:23.420Z,14.83
2018-11-25T23:23:54.520Z,13.85
2018-11-25T23:26:26.700Z,14.53
2018-11-25T23:28:58.100Z,16.77
2018-11-25T23:31:30.700Z,22.55
2018-11-25T23:34:03.940Z,14.30
2018-11-25T23:36:35.702Z,17.25
2018-11-25T23:39:09.220Z,14.65
2018-11-25T23:41:42.400Z,14.33
2018-11-25T23:44:13.980Z,14.83
2018-11-25T23:46:45.280Z,15.20
2018-11-25T23:49:16.061Z,17.23
2018-11-25T23:51:48.127Z,20.12
2018-11-25T23:54:20.060Z,20.30
2018-11-25T23:56:53.300Z,14.90
2018-11-25T23:59:24.840Z,13.75
